sensor_id;sensor_type;location;lat;lon;timestamp;P1;durP1;ratioP1;P2;durP2;ratioP2
19049;SDS011;9657;45.940;12.840;2023-01-08T00:02:25;36.90;;;24.13;;
19049;SDS011;9657;45.940;12.840;2023-01-08T00:04:52;42.73;;;25.33;;
19049;SDS011;9657;45.940;12.840;2023-01-08T00:07:19;38.57;;;25.07;;
19049;SDS011;9657;45.940;12.840;2023-01-08T00:09:46;39.70;;;25.60;;
19049;SDS011;9657;45.940;12.840;2023-01-08T00:12:16;46.50;;;25.03;;
19049;SDS011;9657;45.940;12.840;2023-01-08T00:14:43;35.67;;;24.20;;
19049;SDS011;9657;45.940;12.840;2023-01-08T00:17:10;37.63;;;23.93;;
19049;SDS011;9657;45.940;12.840;2023-01-08T00:19:37;37.90;;;24.73;;
19049;SDS011;9657;45.940;12.840;2023-01-08T00:22:06;36.73;;;23.23;;
19049;SDS011;9657;45.940;12.840;2023-01-08T00:24:33;36.97;;;24.40;;
19049;SDS011;9657;45.940;12.840;2023-01-08T00:27:00;35.13;;;24.07;;
19049;SDS011;9657;45.940;12.840;2023-01-08T00:29:28;36.47;;;23.67;;
19049;SDS011;9657;45.940;12.840;2023-01-08T00:31:55;38.13;;;24.97;;
19049;SDS011;9657;45.940;12.840;2023-01-08T00:34:22;34.70;;;23.33;;
19049;SDS011;9657;45.940;12.840;2023-01-08T00:36:49;36.57;;;24.53;;
19049;SDS011;9657;45.940;12.840;2023-01-08T00:39:16;41.10;;;25.03;;
19049;SDS011;9657;45.940;12.840;2023-01-08T00:41:43;37.00;;;24.37;;
19049;SDS011;9657;45.940;12.840;2023-01-08T00:44:10;39.37;;;24.40;;
19049;SDS011;9657;45.940;12.840;2023-01-08T00:46:38;36.63;;;24.03;;
19049;SDS011;9657;45.940;12.840;2023-01-08T00:49:05;40.10;;;25.90;;
19049;SDS011;9657;45.940;12.840;2023-01-08T00:51:32;37.50;;;24.27;;
19049;SDS011;9657;45.940;12.840;2023-01-08T00:53:59;35.87;;;24.60;;
19049;SDS011;9657;45.940;12.840;2023-01-08T00:56:27;36.33;;;24.17;;
19049;SDS011;9657;45.940;12.840;2023-01-08T00:58:54;37.33;;;24.37;;
19049;SDS011;9657;45.940;12.840;2023-01-08T01:01:21;38.37;;;25.00;;
19049;SDS011;9657;45.940;12.840;2023-01-08T01:03:49;37.13;;;23.73;;
19049;SDS011;9657;45.940;12.840;2023-01-08T01:06:16;37.47;;;24.63;;
19049;SDS011;9657;45.940;12.840;2023-01-08T01:08:44;38.03;;;23.30;;
19049;SDS011;9657;45.940;12.840;2023-01-08T01:11:15;37.77;;;24.77;;
19049;SDS011;9657;45.940;12.840;2023-01-08T01:13:44;35.80;;;23.30;;
19049;SDS011;9657;45.940;12.840;2023-01-08T01:16:11;37.57;;;24.80;;
19049;SDS011;9657;45.940;12.840;2023-01-08T01:18:38;35.13;;;23.37;;
19049;SDS011;9657;45.940;12.840;2023-01-08T01:21:10;38.13;;;24.67;;
19049;SDS011;9657;45.940;12.840;2023-01-08T01:23:38;38.87;;;24.70;;
19049;SDS011;9657;45.940;12.840;2023-01-08T01:26:12;39.63;;;24.83;;
19049;SDS011;9657;45.940;12.840;2023-01-08T01:28:40;35.63;;;24.73;;
19049;SDS011;9657;45.940;12.840;2023-01-08T01:31:07;38.00;;;25.30;;
19049;SDS011;9657;45.940;12.840;2023-01-08T01:33:37;38.07;;;25.07;;
19049;SDS011;9657;45.940;12.840;2023-01-08T01:36:04;38.13;;;24.87;;
19049;SDS011;9657;45.940;12.840;2023-01-08T01:38:33;38.00;;;24.77;;
19049;SDS011;9657;45.940;12.840;2023-01-08T01:41:00;35.80;;;24.17;;
19049;SDS011;9657;45.940;12.840;2023-01-08T01:43:36;33.33;;;23.43;;
19049;SDS011;9657;45.940;12.840;2023-01-08T01:46:12;38.20;;;25.23;;
19049;SDS011;9657;45.940;12.840;2023-01-08T01:48:47;39.87;;;26.00;;
19049;SDS011;9657;45.940;12.840;2023-01-08T01:51:17;34.87;;;23.43;;
19049;SDS011;9657;45.940;12.840;2023-01-08T01:53:46;35.33;;;24.50;;
19049;SDS011;9657;45.940;12.840;2023-01-08T01:56:14;39.00;;;24.27;;
19049;SDS011;9657;45.940;12.840;2023-01-08T01:58:41;38.10;;;24.30;;
19049;SDS011;9657;45.940;12.840;2023-01-08T02:03:43;36.47;;;23.47;;
19049;SDS011;9657;45.940;12.840;2023-01-08T02:06:14;37.30;;;23.87;;
19049;SDS011;9657;45.940;12.840;2023-01-08T02:08:49;35.20;;;23.00;;
19049;SDS011;9657;45.940;12.840;2023-01-08T02:11:24;41.37;;;24.87;;
19049;SDS011;9657;45.940;12.840;2023-01-08T02:13:58;40.80;;;23.67;;
19049;SDS011;9657;45.940;12.840;2023-01-08T02:16:33;39.33;;;24.57;;
19049;SDS011;9657;45.940;12.840;2023-01-08T02:19:07;37.30;;;24.00;;
19049;SDS011;9657;45.940;12.840;2023-01-08T02:21:50;37.73;;;23.53;;
19049;SDS011;9657;45.940;12.840;2023-01-08T02:24:32;36.13;;;23.83;;
19049;SDS011;9657;45.940;12.840;2023-01-08T02:27:13;34.47;;;22.70;;
19049;SDS011;9657;45.940;12.840;2023-01-08T02:29:42;38.13;;;24.63;;
19049;SDS011;9657;45.940;12.840;2023-01-08T02:32:10;37.50;;;24.33;;
19049;SDS011;9657;45.940;12.840;2023-01-08T02:34:37;36.60;;;23.87;;
19049;SDS011;9657;45.940;12.840;2023-01-08T02:37:04;35.83;;;24.80;;
19049;SDS011;9657;45.940;12.840;2023-01-08T02:39:45;34.90;;;22.93;;
19049;SDS011;9657;45.940;12.840;2023-01-08T02:42:25;36.77;;;23.50;;
19049;SDS011;9657;45.940;12.840;2023-01-08T02:45:01;39.03;;;23.23;;
19049;SDS011;9657;45.940;12.840;2023-01-08T02:47:37;35.30;;;23.03;;
19049;SDS011;9657;45.940;12.840;2023-01-08T02:50:10;35.13;;;22.77;;
19049;SDS011;9657;45.940;12.840;2023-01-08T02:52:43;38.90;;;24.67;;
19049;SDS011;9657;45.940;12.840;2023-01-08T02:55:15;35.73;;;22.67;;
19049;SDS011;9657;45.940;12.840;2023-01-08T02:57:45;36.43;;;23.10;;
19049;SDS011;9657;45.940;12.840;2023-01-08T03:00:13;36.87;;;24.40;;
19049;SDS011;9657;45.940;12.840;2023-01-08T03:02:41;36.07;;;22.83;;
19049;SDS011;9657;45.940;12.840;2023-01-08T03:05:12;34.17;;;23.47;;
19049;SDS011;9657;45.940;12.840;2023-01-08T03:07:46;35.87;;;23.43;;
19049;SDS011;9657;45.940;12.840;2023-01-08T03:10:13;37.00;;;22.53;;
19049;SDS011;9657;45.940;12.840;2023-01-08T03:12:46;38.00;;;23.93;;
19049;SDS011;9657;45.940;12.840;2023-01-08T03:15:21;34.40;;;22.47;;
19049;SDS011;9657;45.940;12.840;2023-01-08T03:17:53;33.67;;;22.00;;
19049;SDS011;9657;45.940;12.840;2023-01-08T03:20:24;33.57;;;21.60;;
19049;SDS011;9657;45.940;12.840;2023-01-08T03:22:53;34.70;;;23.27;;
19049;SDS011;9657;45.940;12.840;2023-01-08T03:25:22;33.00;;;23.17;;
19049;SDS011;9657;45.940;12.840;2023-01-08T03:27:55;35.57;;;23.37;;
19049;SDS011;9657;45.940;12.840;2023-01-08T03:30:25;34.83;;;24.30;;
19049;SDS011;9657;45.940;12.840;2023-01-08T03:32:54;36.60;;;22.83;;
19049;SDS011;9657;45.940;12.840;2023-01-08T03:35:24;40.17;;;25.57;;
19049;SDS011;9657;45.940;12.840;2023-01-08T03:37:54;35.27;;;23.47;;
19049;SDS011;9657;45.940;12.840;2023-01-08T03:40:27;35.73;;;22.93;;
19049;SDS011;9657;45.940;12.840;2023-01-08T03:43:02;37.00;;;23.93;;
19049;SDS011;9657;45.940;12.840;2023-01-08T03:45:30;36.27;;;23.87;;
19049;SDS011;9657;45.940;12.840;2023-01-08T03:47:58;31.00;;;21.33;;
19049;SDS011;9657;45.940;12.840;2023-01-08T03:50:27;35.47;;;23.07;;
19049;SDS011;9657;45.940;12.840;2023-01-08T03:52:56;39.50;;;24.73;;
19049;SDS011;9657;45.940;12.840;2023-01-08T03:55:23;33.87;;;22.60;;
19049;SDS011;9657;45.940;12.840;2023-01-08T03:57:50;38.17;;;22.50;;
19049;SDS011;9657;45.940;12.840;2023-01-08T04:00:19;34.77;;;22.47;;
19049;SDS011;9657;45.940;12.840;2023-01-08T04:02:46;37.90;;;22.87;;
19049;SDS011;9657;45.940;12.840;2023-01-08T04:05:13;38.00;;;23.23;;
19049;SDS011;9657;45.940;12.840;2023-01-08T04:07:40;35.50;;;22.93;;
19049;SDS011;9657;45.940;12.840;2023-01-08T04:10:07;33.57;;;21.93;;
19049;SDS011;9657;45.940;12.840;2023-01-08T04:12:34;34.90;;;23.33;;
19049;SDS011;9657;45.940;12.840;2023-01-08T04:15:01;35.50;;;21.90;;
19049;SDS011;9657;45.940;12.840;2023-01-08T04:17:30;32.07;;;22.20;;
19049;SDS011;9657;45.940;12.840;2023-01-08T04:19:57;31.70;;;21.40;;
19049;SDS011;9657;45.940;12.840;2023-01-08T04:22:24;33.17;;;22.73;;
19049;SDS011;9657;45.940;12.840;2023-01-08T04:24:51;37.93;;;23.90;;
19049;SDS011;9657;45.940;12.840;2023-01-08T04:27:18;33.53;;;22.20;;
19049;SDS011;9657;45.940;12.840;2023-01-08T04:29:45;35.33;;;24.27;;
19049;SDS011;9657;45.940;12.840;2023-01-08T04:32:12;34.70;;;22.87;;
19049;SDS011;9657;45.940;12.840;2023-01-08T04:34:40;33.87;;;21.43;;
19049;SDS011;9657;45.940;12.840;2023-01-08T04:37:07;32.03;;;22.37;;
19049;SDS011;9657;45.940;12.840;2023-01-08T04:39:34;36.43;;;22.43;;
19049;SDS011;9657;45.940;12.840;2023-01-08T04:42:01;37.80;;;23.30;;
19049;SDS011;9657;45.940;12.840;2023-01-08T04:44:29;34.90;;;22.90;;
19049;SDS011;9657;45.940;12.840;2023-01-08T04:46:56;36.07;;;23.20;;
19049;SDS011;9657;45.940;12.840;2023-01-08T04:49:23;33.83;;;21.80;;
19049;SDS011;9657;45.940;12.840;2023-01-08T04:51:51;35.27;;;22.13;;
19049;SDS011;9657;45.940;12.840;2023-01-08T04:54:18;34.53;;;22.37;;
19049;SDS011;9657;45.940;12.840;2023-01-08T04:56:45;32.50;;;22.07;;
19049;SDS011;9657;45.940;12.840;2023-01-08T04:59:15;31.97;;;21.17;;
19049;SDS011;9657;45.940;12.840;2023-01-08T05:01:42;35.03;;;22.83;;
19049;SDS011;9657;45.940;12.840;2023-01-08T05:04:09;34.60;;;22.80;;
19049;SDS011;9657;45.940;12.840;2023-01-08T05:06:36;36.80;;;22.80;;
19049;SDS011;9657;45.940;12.840;2023-01-08T05:09:05;35.40;;;22.87;;
19049;SDS011;9657;45.940;12.840;2023-01-08T05:11:32;36.60;;;23.43;;
19049;SDS011;9657;45.940;12.840;2023-01-08T05:14:01;33.07;;;21.37;;
19049;SDS011;9657;45.940;12.840;2023-01-08T05:16:28;32.43;;;22.23;;
19049;SDS011;9657;45.940;12.840;2023-01-08T05:18:56;34.73;;;22.67;;
19049;SDS011;9657;45.940;12.840;2023-01-08T05:21:23;33.17;;;22.77;;
19049;SDS011;9657;45.940;12.840;2023-01-08T05:23:50;34.10;;;22.47;;
19049;SDS011;9657;45.940;12.840;2023-01-08T05:26:18;37.87;;;23.80;;
19049;SDS011;9657;45.940;12.840;2023-01-08T05:28:46;29.93;;;20.77;;
19049;SDS011;9657;45.940;12.840;2023-01-08T05:31:13;36.37;;;22.20;;
19049;SDS011;9657;45.940;12.840;2023-01-08T05:33:40;34.90;;;22.43;;
19049;SDS011;9657;45.940;12.840;2023-01-08T05:36:08;33.57;;;22.53;;
19049;SDS011;9657;45.940;12.840;2023-01-08T05:38:36;35.67;;;22.27;;
19049;SDS011;9657;45.940;12.840;2023-01-08T05:41:04;35.83;;;22.57;;
19049;SDS011;9657;45.940;12.840;2023-01-08T05:43:33;35.93;;;22.47;;
19049;SDS011;9657;45.940;12.840;2023-01-08T05:46:00;39.13;;;24.07;;
19049;SDS011;9657;45.940;12.840;2023-01-08T05:48:29;31.97;;;22.07;;
19049;SDS011;9657;45.940;12.840;2023-01-08T05:50:57;34.73;;;21.97;;
19049;SDS011;9657;45.940;12.840;2023-01-08T05:53:24;32.90;;;21.97;;
19049;SDS011;9657;45.940;12.840;2023-01-08T05:55:56;35.30;;;22.77;;
19049;SDS011;9657;45.940;12.840;2023-01-08T05:58:24;34.83;;;22.27;;
19049;SDS011;9657;45.940;12.840;2023-01-08T06:00:52;31.50;;;21.10;;
19049;SDS011;9657;45.940;12.840;2023-01-08T06:03:20;35.50;;;22.07;;
19049;SDS011;9657;45.940;12.840;2023-01-08T06:05:47;33.50;;;22.70;;
19049;SDS011;9657;45.940;12.840;2023-01-08T06:08:14;34.33;;;22.67;;
19049;SDS011;9657;45.940;12.840;2023-01-08T06:10:41;35.77;;;22.50;;
19049;SDS011;9657;45.940;12.840;2023-01-08T06:13:08;33.73;;;22.47;;
19049;SDS011;9657;45.940;12.840;2023-01-08T06:15:36;38.73;;;23.73;;
19049;SDS011;9657;45.940;12.840;2023-01-08T06:18:05;32.27;;;21.53;;
19049;SDS011;9657;45.940;12.840;2023-01-08T06:20:32;31.77;;;21.07;;
19049;SDS011;9657;45.940;12.840;2023-01-08T06:22:59;37.50;;;23.03;;
19049;SDS011;9657;45.940;12.840;2023-01-08T06:25:26;34.63;;;22.10;;
19049;SDS011;9657;45.940;12.840;2023-01-08T06:27:54;36.63;;;22.90;;
19049;SDS011;9657;45.940;12.840;2023-01-08T06:30:21;34.57;;;22.83;;
19049;SDS011;9657;45.940;12.840;2023-01-08T06:32:48;32.80;;;21.43;;
19049;SDS011;9657;45.940;12.840;2023-01-08T06:35:16;34.37;;;20.80;;
19049;SDS011;9657;45.940;12.840;2023-01-08T06:37:43;33.07;;;21.47;;
19049;SDS011;9657;45.940;12.840;2023-01-08T06:40:10;35.37;;;22.33;;
19049;SDS011;9657;45.940;12.840;2023-01-08T06:42:37;29.60;;;20.73;;
19049;SDS011;9657;45.940;12.840;2023-01-08T06:45:05;33.03;;;21.93;;
19049;SDS011;9657;45.940;12.840;2023-01-08T06:47:33;32.30;;;21.10;;
19049;SDS011;9657;45.940;12.840;2023-01-08T06:50:00;33.63;;;21.33;;
19049;SDS011;9657;45.940;12.840;2023-01-08T06:52:28;34.30;;;21.87;;
19049;SDS011;9657;45.940;12.840;2023-01-08T06:54:55;32.57;;;21.97;;
19049;SDS011;9657;45.940;12.840;2023-01-08T06:57:22;34.80;;;22.80;;
19049;SDS011;9657;45.940;12.840;2023-01-08T06:59:49;33.13;;;21.83;;
19049;SDS011;9657;45.940;12.840;2023-01-08T07:02:17;37.10;;;22.53;;
19049;SDS011;9657;45.940;12.840;2023-01-08T07:04:44;37.17;;;22.83;;
19049;SDS011;9657;45.940;12.840;2023-01-08T07:07:11;35.27;;;22.10;;
19049;SDS011;9657;45.940;12.840;2023-01-08T07:09:41;34.10;;;22.30;;
19049;SDS011;9657;45.940;12.840;2023-01-08T07:12:10;34.23;;;22.03;;
19049;SDS011;9657;45.940;12.840;2023-01-08T07:14:38;36.87;;;21.97;;
19049;SDS011;9657;45.940;12.840;2023-01-08T07:17:05;32.93;;;21.33;;
19049;SDS011;9657;45.940;12.840;2023-01-08T07:19:32;38.23;;;22.70;;
19049;SDS011;9657;45.940;12.840;2023-01-08T07:21:59;33.20;;;22.97;;
19049;SDS011;9657;45.940;12.840;2023-01-08T07:24:26;34.40;;;22.17;;
19049;SDS011;9657;45.940;12.840;2023-01-08T07:26:55;35.30;;;21.97;;
19049;SDS011;9657;45.940;12.840;2023-01-08T07:29:22;36.10;;;21.93;;
19049;SDS011;9657;45.940;12.840;2023-01-08T07:31:49;38.23;;;23.63;;
19049;SDS011;9657;45.940;12.840;2023-01-08T07:34:16;33.27;;;21.70;;
19049;SDS011;9657;45.940;12.840;2023-01-08T07:36:43;33.90;;;21.63;;
19049;SDS011;9657;45.940;12.840;2023-01-08T07:39:10;34.77;;;21.87;;
19049;SDS011;9657;45.940;12.840;2023-01-08T07:41:37;37.17;;;22.50;;
19049;SDS011;9657;45.940;12.840;2023-01-08T07:44:05;34.67;;;20.00;;
19049;SDS011;9657;45.940;12.840;2023-01-08T07:46:32;32.27;;;21.17;;
19049;SDS011;9657;45.940;12.840;2023-01-08T07:48:59;34.57;;;22.63;;
19049;SDS011;9657;45.940;12.840;2023-01-08T07:51:26;37.53;;;21.97;;
19049;SDS011;9657;45.940;12.840;2023-01-08T07:53:54;33.30;;;20.87;;
19049;SDS011;9657;45.940;12.840;2023-01-08T07:56:21;31.40;;;20.93;;
19049;SDS011;9657;45.940;12.840;2023-01-08T07:58:49;39.73;;;22.97;;
19049;SDS011;9657;45.940;12.840;2023-01-08T08:01:17;36.53;;;21.13;;
19049;SDS011;9657;45.940;12.840;2023-01-08T08:03:44;31.47;;;20.60;;
19049;SDS011;9657;45.940;12.840;2023-01-08T08:06:11;36.27;;;22.53;;
19049;SDS011;9657;45.940;12.840;2023-01-08T08:08:38;37.77;;;21.40;;
19049;SDS011;9657;45.940;12.840;2023-01-08T08:11:05;38.23;;;23.83;;
19049;SDS011;9657;45.940;12.840;2023-01-08T08:13:32;39.47;;;23.23;;
19049;SDS011;9657;45.940;12.840;2023-01-08T08:16:00;38.73;;;23.17;;
19049;SDS011;9657;45.940;12.840;2023-01-08T08:18:29;37.43;;;24.53;;
19049;SDS011;9657;45.940;12.840;2023-01-08T08:20:56;40.17;;;24.10;;
19049;SDS011;9657;45.940;12.840;2023-01-08T08:23:23;40.20;;;25.03;;
19049;SDS011;9657;45.940;12.840;2023-01-08T08:25:50;45.87;;;25.87;;
19049;SDS011;9657;45.940;12.840;2023-01-08T08:28:17;39.80;;;25.40;;
19049;SDS011;9657;45.940;12.840;2023-01-08T08:30:45;40.20;;;24.70;;
19049;SDS011;9657;45.940;12.840;2023-01-08T08:33:12;44.87;;;26.07;;
19049;SDS011;9657;45.940;12.840;2023-01-08T08:35:46;47.13;;;27.00;;
19049;SDS011;9657;45.940;12.840;2023-01-08T08:38:15;45.97;;;25.93;;
19049;SDS011;9657;45.940;12.840;2023-01-08T08:40:42;45.80;;;27.23;;
19049;SDS011;9657;45.940;12.840;2023-01-08T08:43:09;43.60;;;27.00;;
19049;SDS011;9657;45.940;12.840;2023-01-08T08:45:36;46.37;;;27.30;;
19049;SDS011;9657;45.940;12.840;2023-01-08T08:48:04;47.50;;;27.60;;
19049;SDS011;9657;45.940;12.840;2023-01-08T08:50:32;51.17;;;29.03;;
19049;SDS011;9657;45.940;12.840;2023-01-08T08:53:00;50.03;;;28.93;;
19049;SDS011;9657;45.940;12.840;2023-01-08T08:55:29;45.13;;;29.40;;
19049;SDS011;9657;45.940;12.840;2023-01-08T08:58:00;50.40;;;30.03;;
19049;SDS011;9657;45.940;12.840;2023-01-08T09:00:29;48.93;;;28.20;;
19049;SDS011;9657;45.940;12.840;2023-01-08T09:02:56;46.47;;;28.07;;
19049;SDS011;9657;45.940;12.840;2023-01-08T09:05:23;53.20;;;29.77;;
19049;SDS011;9657;45.940;12.840;2023-01-08T09:07:50;49.50;;;30.20;;
19049;SDS011;9657;45.940;12.840;2023-01-08T09:10:20;46.67;;;29.00;;
19049;SDS011;9657;45.940;12.840;2023-01-08T09:12:47;53.20;;;31.77;;
19049;SDS011;9657;45.940;12.840;2023-01-08T09:15:14;50.00;;;30.07;;
19049;SDS011;9657;45.940;12.840;2023-01-08T09:17:41;53.10;;;31.67;;
19049;SDS011;9657;45.940;12.840;2023-01-08T09:20:08;49.47;;;29.50;;
19049;SDS011;9657;45.940;12.840;2023-01-08T09:22:35;52.50;;;30.23;;
19049;SDS011;9657;45.940;12.840;2023-01-08T09:25:03;56.53;;;32.40;;
19049;SDS011;9657;45.940;12.840;2023-01-08T09:27:31;53.13;;;32.20;;
19049;SDS011;9657;45.940;12.840;2023-01-08T09:29:58;57.33;;;31.90;;
19049;SDS011;9657;45.940;12.840;2023-01-08T09:32:25;55.37;;;31.10;;
19049;SDS011;9657;45.940;12.840;2023-01-08T09:34:52;56.77;;;32.70;;
19049;SDS011;9657;45.940;12.840;2023-01-08T09:37:19;53.77;;;32.90;;
19049;SDS011;9657;45.940;12.840;2023-01-08T09:39:47;58.63;;;33.60;;
19049;SDS011;9657;45.940;12.840;2023-01-08T09:42:14;57.13;;;33.57;;
19049;SDS011;9657;45.940;12.840;2023-01-08T09:44:48;54.70;;;32.67;;
19049;SDS011;9657;45.940;12.840;2023-01-08T09:47:21;53.67;;;32.80;;
19049;SDS011;9657;45.940;12.840;2023-01-08T09:49:52;55.27;;;31.23;;
19049;SDS011;9657;45.940;12.840;2023-01-08T09:52:24;61.53;;;34.63;;
19049;SDS011;9657;45.940;12.840;2023-01-08T09:54:51;57.80;;;33.93;;
19049;SDS011;9657;45.940;12.840;2023-01-08T09:57:19;58.83;;;32.43;;
19049;SDS011;9657;45.940;12.840;2023-01-08T09:59:48;62.00;;;35.33;;
19049;SDS011;9657;45.940;12.840;2023-01-08T10:02:16;56.40;;;33.30;;
19049;SDS011;9657;45.940;12.840;2023-01-08T10:04:44;60.80;;;35.87;;
19049;SDS011;9657;45.940;12.840;2023-01-08T10:07:17;59.60;;;35.00;;
19049;SDS011;9657;45.940;12.840;2023-01-08T10:09:46;54.90;;;33.93;;
19049;SDS011;9657;45.940;12.840;2023-01-08T10:12:15;61.57;;;35.63;;
19049;SDS011;9657;45.940;12.840;2023-01-08T10:14:52;63.57;;;36.83;;
19049;SDS011;9657;45.940;12.840;2023-01-08T10:17:22;60.40;;;35.07;;
19049;SDS011;9657;45.940;12.840;2023-01-08T10:19:53;63.27;;;35.87;;
19049;SDS011;9657;45.940;12.840;2023-01-08T10:22:20;53.93;;;31.67;;
19049;SDS011;9657;45.940;12.840;2023-01-08T10:24:49;59.03;;;34.70;;
19049;SDS011;9657;45.940;12.840;2023-01-08T10:27:17;65.20;;;35.83;;
19049;SDS011;9657;45.940;12.840;2023-01-08T10:29:46;61.97;;;34.90;;
19049;SDS011;9657;45.940;12.840;2023-01-08T10:32:18;62.47;;;35.83;;
19049;SDS011;9657;45.940;12.840;2023-01-08T10:34:49;59.87;;;35.40;;
19049;SDS011;9657;45.940;12.840;2023-01-08T10:37:24;56.93;;;32.80;;
19049;SDS011;9657;45.940;12.840;2023-01-08T10:39:54;56.67;;;34.40;;
19049;SDS011;9657;45.940;12.840;2023-01-08T10:42:31;56.53;;;32.70;;
19049;SDS011;9657;45.940;12.840;2023-01-08T10:45:02;56.47;;;32.00;;
19049;SDS011;9657;45.940;12.840;2023-01-08T10:47:36;55.07;;;31.53;;
19049;SDS011;9657;45.940;12.840;2023-01-08T10:50:04;56.50;;;33.80;;
19049;SDS011;9657;45.940;12.840;2023-01-08T10:52:49;53.67;;;32.23;;
19049;SDS011;9657;45.940;12.840;2023-01-08T10:55:20;58.83;;;32.27;;
19049;SDS011;9657;45.940;12.840;2023-01-08T10:57:52;55.30;;;31.10;;
19049;SDS011;9657;45.940;12.840;2023-01-08T11:00:22;56.30;;;32.13;;
19049;SDS011;9657;45.940;12.840;2023-01-08T11:02:51;50.27;;;30.07;;
19049;SDS011;9657;45.940;12.840;2023-01-08T11:05:19;50.37;;;30.97;;
19049;SDS011;9657;45.940;12.840;2023-01-08T11:07:56;53.33;;;31.53;;
19049;SDS011;9657;45.940;12.840;2023-01-08T11:10:25;52.73;;;29.87;;
19049;SDS011;9657;45.940;12.840;2023-01-08T11:12:53;49.20;;;30.43;;
19049;SDS011;9657;45.940;12.840;2023-01-08T11:15:27;54.50;;;32.47;;
19049;SDS011;9657;45.940;12.840;2023-01-08T11:18:04;51.30;;;30.57;;
19049;SDS011;9657;45.940;12.840;2023-01-08T11:20:33;52.67;;;31.30;;
19049;SDS011;9657;45.940;12.840;2023-01-08T11:23:04;47.73;;;30.20;;
19049;SDS011;9657;45.940;12.840;2023-01-08T11:25:31;56.10;;;30.33;;
19049;SDS011;9657;45.940;12.840;2023-01-08T11:28:00;55.30;;;30.60;;
19049;SDS011;9657;45.940;12.840;2023-01-08T11:30:29;54.37;;;29.70;;
19049;SDS011;9657;45.940;12.840;2023-01-08T11:33:01;48.03;;;29.03;;
19049;SDS011;9657;45.940;12.840;2023-01-08T11:35:33;48.97;;;30.17;;
19049;SDS011;9657;45.940;12.840;2023-01-08T11:38:04;54.20;;;29.37;;
19049;SDS011;9657;45.940;12.840;2023-01-08T11:40:35;51.83;;;30.83;;
19049;SDS011;9657;45.940;12.840;2023-01-08T11:43:15;47.97;;;30.30;;
19049;SDS011;9657;45.940;12.840;2023-01-08T11:45:53;55.73;;;30.87;;
19049;SDS011;9657;45.940;12.840;2023-01-08T11:48:35;50.97;;;30.43;;
19049;SDS011;9657;45.940;12.840;2023-01-08T11:54:14;51.83;;;29.27;;
19049;SDS011;9657;45.940;12.840;2023-01-08T11:57:08;49.70;;;29.00;;
19049;SDS011;9657;45.940;12.840;2023-01-08T12:02:40;49.33;;;29.33;;
19049;SDS011;9657;45.940;12.840;2023-01-08T12:05:27;47.90;;;27.93;;
19049;SDS011;9657;45.940;12.840;2023-01-08T12:08:01;47.93;;;28.43;;
19049;SDS011;9657;45.940;12.840;2023-01-08T12:13:26;48.80;;;28.23;;
19049;SDS011;9657;45.940;12.840;2023-01-08T12:16:08;48.93;;;28.63;;
19049;SDS011;9657;45.940;12.840;2023-01-08T12:19:03;50.50;;;28.47;;
19049;SDS011;9657;45.940;12.840;2023-01-08T12:21:43;44.60;;;26.37;;
19049;SDS011;9657;45.940;12.840;2023-01-08T12:24:28;48.03;;;26.60;;
19049;SDS011;9657;45.940;12.840;2023-01-08T12:27:10;48.67;;;27.30;;
19049;SDS011;9657;45.940;12.840;2023-01-08T12:29:52;46.67;;;27.43;;
19049;SDS011;9657;45.940;12.840;2023-01-08T12:32:30;44.97;;;26.20;;
19049;SDS011;9657;45.940;12.840;2023-01-08T12:35:03;46.40;;;26.60;;
19049;SDS011;9657;45.940;12.840;2023-01-08T12:37:38;48.63;;;26.57;;
19049;SDS011;9657;45.940;12.840;2023-01-08T12:40:14;46.40;;;28.90;;
19049;SDS011;9657;45.940;12.840;2023-01-08T12:42:43;40.57;;;26.83;;
19049;SDS011;9657;45.940;12.840;2023-01-08T12:45:15;42.60;;;25.67;;
19049;SDS011;9657;45.940;12.840;2023-01-08T12:47:46;43.67;;;27.27;;
19049;SDS011;9657;45.940;12.840;2023-01-08T12:50:34;42.13;;;25.47;;
19049;SDS011;9657;45.940;12.840;2023-01-08T12:53:13;42.27;;;26.83;;
19049;SDS011;9657;45.940;12.840;2023-01-08T12:55:50;39.63;;;24.53;;
19049;SDS011;9657;45.940;12.840;2023-01-08T12:58:24;43.53;;;25.60;;
19049;SDS011;9657;45.940;12.840;2023-01-08T13:00:58;41.53;;;25.40;;
19049;SDS011;9657;45.940;12.840;2023-01-08T13:03:33;44.73;;;25.43;;
19049;SDS011;9657;45.940;12.840;2023-01-08T13:06:09;43.47;;;25.80;;
19049;SDS011;9657;45.940;12.840;2023-01-08T13:08:41;40.07;;;26.33;;
19049;SDS011;9657;45.940;12.840;2023-01-08T13:11:21;45.90;;;25.90;;
19049;SDS011;9657;45.940;12.840;2023-01-08T13:13:57;41.73;;;25.97;;
19049;SDS011;9657;45.940;12.840;2023-01-08T13:16:30;43.00;;;25.97;;
19049;SDS011;9657;45.940;12.840;2023-01-08T13:19:00;40.93;;;26.03;;
19049;SDS011;9657;45.940;12.840;2023-01-08T13:21:30;43.83;;;24.90;;
19049;SDS011;9657;45.940;12.840;2023-01-08T13:24:04;45.27;;;26.47;;
19049;SDS011;9657;45.940;12.840;2023-01-08T13:26:47;42.73;;;24.93;;
19049;SDS011;9657;45.940;12.840;2023-01-08T13:29:24;41.33;;;25.53;;
19049;SDS011;9657;45.940;12.840;2023-01-08T13:32:01;38.17;;;23.50;;
19049;SDS011;9657;45.940;12.840;2023-01-08T13:34:37;41.40;;;25.10;;
19049;SDS011;9657;45.940;12.840;2023-01-08T13:37:06;40.90;;;23.83;;
19049;SDS011;9657;45.940;12.840;2023-01-08T13:39:36;38.40;;;24.73;;
19049;SDS011;9657;45.940;12.840;2023-01-08T13:42:15;39.83;;;24.87;;
19049;SDS011;9657;45.940;12.840;2023-01-08T13:44:47;46.27;;;25.83;;
19049;SDS011;9657;45.940;12.840;2023-01-08T13:47:17;42.17;;;24.87;;
19049;SDS011;9657;45.940;12.840;2023-01-08T13:49:48;40.20;;;24.80;;
19049;SDS011;9657;45.940;12.840;2023-01-08T13:52:30;42.33;;;25.50;;
19049;SDS011;9657;45.940;12.840;2023-01-08T13:55:03;41.03;;;24.83;;
19049;SDS011;9657;45.940;12.840;2023-01-08T13:57:39;37.40;;;23.00;;
19049;SDS011;9657;45.940;12.840;2023-01-08T14:00:15;39.20;;;23.77;;
19049;SDS011;9657;45.940;12.840;2023-01-08T14:02:46;38.27;;;24.60;;
19049;SDS011;9657;45.940;12.840;2023-01-08T14:05:19;38.00;;;23.90;;
19049;SDS011;9657;45.940;12.840;2023-01-08T14:07:48;38.03;;;24.43;;
19049;SDS011;9657;45.940;12.840;2023-01-08T14:10:16;39.00;;;22.23;;
19049;SDS011;9657;45.940;12.840;2023-01-08T14:12:44;39.43;;;24.23;;
19049;SDS011;9657;45.940;12.840;2023-01-08T14:15:21;44.57;;;24.57;;
19049;SDS011;9657;45.940;12.840;2023-01-08T14:17:50;38.43;;;23.23;;
19049;SDS011;9657;45.940;12.840;2023-01-08T14:20:19;39.83;;;24.00;;
19049;SDS011;9657;45.940;12.840;2023-01-08T14:22:56;38.40;;;23.37;;
19049;SDS011;9657;45.940;12.840;2023-01-08T14:25:25;36.17;;;23.60;;
19049;SDS011;9657;45.940;12.840;2023-01-08T14:27:53;38.93;;;24.47;;
19049;SDS011;9657;45.940;12.840;2023-01-08T14:30:21;39.87;;;25.37;;
19049;SDS011;9657;45.940;12.840;2023-01-08T14:32:49;41.00;;;24.13;;
19049;SDS011;9657;45.940;12.840;2023-01-08T14:35:16;39.93;;;24.67;;
19049;SDS011;9657;45.940;12.840;2023-01-08T14:37:48;38.77;;;24.27;;
19049;SDS011;9657;45.940;12.840;2023-01-08T14:40:15;42.50;;;25.17;;
19049;SDS011;9657;45.940;12.840;2023-01-08T14:42:54;41.70;;;23.43;;
19049;SDS011;9657;45.940;12.840;2023-01-08T14:45:25;36.60;;;22.97;;
19049;SDS011;9657;45.940;12.840;2023-01-08T14:47:55;39.20;;;22.80;;
19049;SDS011;9657;45.940;12.840;2023-01-08T14:50:26;38.80;;;24.00;;